Time;durP1;ratioP1;P1;durP2;ratioP2;P2;SDS_P1;SDS_P2;PMS_P1;PMS_P2;Temp;Humidity;BMP_temperature;BMP_pressure;BME280_temperature;BME280_humidity;BME280_pressure;Samples;Min_cycle;Max_cycle;Signal;HPM_P1;HPM_P2
2022/05/03 00:00:10;;;;;;;14.95;11.00;;;8.90;99.90;;;;;;5039003;28;20037;-77
2022/05/03 00:02:51;;;;;;;12.85;9.30;;;9.00;99.90;;;;;;5039225;28;20467;-76
2022/05/03 00:05:27;;;;;;;12.77;9.43;;;9.10;99.90;;;;;;5072257;28;20055;-77
2022/05/03 00:08:18;;;;;;;13.60;9.75;;;9.10;99.90;;;;;;5021676;28;20682;-76
2022/05/03 00:11:12;;;;;;;13.38;10.57;;;9.10;99.90;;;;;;5055774;28;20132;-76
2022/05/03 00:13:46;;;;;;;12.23;10.02;;;9.10;99.90;;;;;;5054024;28;20067;-76
2022/05/03 00:16:15;;;;;;;12.05;9.93;;;9.10;99.90;;;;;;5072648;28;20059;-75
2022/05/03 00:18:44;;;;;;;13.05;10.05;;;9.00;99.90;;;;;;5015544;28;20045;-75
2022/05/03 00:21:12;;;;;;;13.73;10.10;;;9.00;99.90;;;;;;5036695;28;20083;-74
2022/05/03 00:23:38;;;;;;;12.77;10.35;;;9.00;99.90;;;;;;5039585;28;20127;-75
2022/05/03 00:26:05;;;;;;;12.95;11.20;;;8.90;99.90;;;;;;5038327;28;20093;-75
2022/05/03 00:28:32;;;;;;;12.90;9.82;;;9.00;99.90;;;;;;5073506;28;20095;-72
2022/05/03 00:30:59;;;;;;;13.80;10.88;;;9.00;99.90;;;;;;5054415;28;20037;-75
2022/05/03 00:33:25;;;;;;;12.77;10.65;;;9.00;99.90;;;;;;5039323;28;20041;-75
2022/05/03 00:35:51;;;;;;;12.32;10.30;;;9.00;99.90;;;;;;5038616;28;20505;-76
2022/05/03 00:38:17;;;;;;;13.88;10.65;;;8.90;99.90;;;;;;5072521;28;20045;-75
2022/05/03 00:40:59;;;;;;;15.85;10.55;;;8.90;99.90;;;;;;5038227;28;20482;-75
2022/05/03 00:43:37;;;;;;;13.32;10.85;;;8.90;99.90;;;;;;5054689;28;20128;-75
2022/05/03 00:46:12;;;;;;;12.88;10.75;;;8.90;99.90;;;;;;5021463;28;20045;-75
2022/05/03 00:49:04;;;;;;;12.80;10.60;;;8.80;99.90;;;;;;5037993;28;20045;-76
2022/05/03 00:51:45;;;;;;;11.77;9.82;;;8.80;99.90;;;;;;5037872;28;20086;-75
2022/05/03 00:54:35;;;;;;;13.80;10.50;;;8.70;99.90;;;;;;5023524;28;20052;-75
2022/05/03 00:57:04;;;;;;;13.80;10.73;;;8.60;99.90;;;;;;5054394;28;20045;-75
2022/05/03 00:59:55;;;;;;;14.23;9.85;;;8.60;99.90;;;;;;5054714;28;20048;-75
2022/05/03 01:02:40;;;;;;;13.45;11.05;;;8.60;99.90;;;;;;5023266;28;20048;-75
2022/05/03 01:05:09;;;;;;;13.15;10.15;;;8.60;99.90;;;;;;5055366;28;20084;-75
2022/05/03 01:07:41;;;;;;;13.73;10.57;;;8.50;99.90;;;;;;5023812;28;20385;-75
2022/05/03 01:10:35;;;;;;;14.57;11.15;;;8.50;99.90;;;;;;5070521;28;20053;-76
2022/05/03 01:13:16;;;;;;;12.85;10.13;;;8.50;99.90;;;;;;5039617;28;20049;-75
2022/05/03 01:15:45;;;;;;;15.07;11.50;;;8.40;99.90;;;;;;5037823;28;20194;-76
2022/05/03 01:18:33;;;;;;;15.55;11.38;;;8.40;99.90;;;;;;5054250;28;20395;-75
2022/05/03 01:21:29;;;;;;;14.85;11.38;;;8.50;99.90;;;;;;5053956;28;20365;-76
2022/05/03 01:24:07;;;;;;;15.88;11.20;;;8.50;99.90;;;;;;5070126;28;20045;-75
2022/05/03 01:26:58;;;;;;;16.10;12.32;;;8.50;99.90;;;;;;5034094;28;20068;-75
2022/05/03 01:29:32;;;;;;;17.63;12.80;;;8.60;99.90;;;;;;5070322;28;20414;-76
2022/05/03 01:32:04;;;;;;;21.15;16.92;;;8.70;99.90;;;;;;5038046;28;20818;-75
2022/05/03 01:34:30;;;;;;;20.83;16.60;;;8.90;99.90;;;;;;5035060;28;20045;-75
2022/05/03 01:37:30;;;;;;;25.13;16.90;;;9.00;99.90;;;;;;5057638;28;20394;-76
2022/05/03 01:40:02;;;;;;;22.83;17.88;;;9.20;99.90;;;;;;5039232;28;20041;-76
2022/05/03 01:42:50;;;;;;;24.55;19.33;;;9.30;99.90;;;;;;5077065;28;20056;-76
2022/05/03 01:45:31;;;;;;;25.27;19.52;;;9.40;99.90;;;;;;5078309;28;20056;-76
2022/05/03 01:48:09;;;;;;;30.55;22.65;;;9.60;99.90;;;;;;5078462;28;20401;-75
2022/05/03 01:50:45;;;;;;;32.28;23.08;;;9.60;99.90;;;;;;5030271;28;20045;-76
2022/05/03 01:53:19;;;;;;;35.45;23.92;;;9.80;99.90;;;;;;5062504;28;20045;-75
2022/05/03 01:56:18;;;;;;;34.08;23.88;;;9.80;99.90;;;;;;5060940;28;20037;-75
2022/05/03 01:59:12;;;;;;;32.65;24.67;;;10.00;99.90;;;;;;5057128;28;20075;-76
2022/05/03 02:01:41;;;;;;;36.70;26.55;;;10.10;99.90;;;;;;5030135;28;20059;-75
2022/05/03 02:04:39;;;;;;;36.30;26.33;;;10.10;99.90;;;;;;5027447;28;20048;-75
2022/05/03 02:07:43;;;;;;;35.95;27.17;;;10.20;99.90;;;;;;5029713;28;20048;-75
2022/05/03 02:10:42;;;;;;;32.75;24.98;;;10.30;99.90;;;;;;5062770;28;20075;-75
2022/05/03 02:16:39;;;;;;;39.67;27.80;;;10.40;99.90;;;;;;5079238;28;20061;-74
2022/05/03 02:19:25;;;;;;;38.83;25.58;;;10.40;99.90;;;;;;5078149;28;20544;-75
2022/05/03 02:22:08;;;;;;;39.58;27.25;;;10.50;99.90;;;;;;5045023;28;20140;-75
2022/05/03 02:24:46;;;;;;;37.45;26.27;;;10.50;99.90;;;;;;5045417;28;20048;-75
2022/05/03 02:27:14;;;;;;;38.95;26.65;;;10.50;99.90;;;;;;5081363;28;20041;-75
2022/05/03 02:29:45;;;;;;;36.20;24.25;;;10.50;99.90;;;;;;5078566;28;20076;-75
2022/05/03 02:32:12;;;;;;;38.08;24.77;;;10.50;99.90;;;;;;5081094;28;20053;-75
2022/05/03 02:35:05;;;;;;;36.70;26.10;;;10.50;99.90;;;;;;5041987;28;20494;-75
2022/05/03 02:37:38;;;;;;;35.92;25.48;;;10.60;99.90;;;;;;5052318;28;20410;-75
2022/05/03 02:40:07;;;;;;;32.60;24.20;;;10.60;99.90;;;;;;5061861;28;20127;-76
2022/05/03 02:42:34;;;;;;;33.05;24.35;;;10.60;99.90;;;;;;5046306;28;20077;-75
2022/05/03 02:45:01;;;;;;;31.35;21.88;;;10.70;99.90;;;;;;5045625;28;20045;-76
2022/05/03 02:47:35;;;;;;;32.30;22.75;;;10.70;99.90;;;;;;5029343;28;20041;-76
2022/05/03 02:50:14;;;;;;;29.10;21.23;;;10.70;99.90;;;;;;5039111;28;20474;-75
2022/05/03 02:52:48;;;;;;;28.27;21.50;;;10.70;99.90;;;;;;5079140;28;20063;-75
2022/05/03 02:55:20;;;;;;;28.92;20.73;;;10.70;99.90;;;;;;5060712;28;20049;-76
2022/05/03 02:58:06;;;;;;;31.83;22.05;;;10.70;99.90;;;;;;5061994;28;20122;-76
2022/05/03 03:04:09;;;;;;;28.90;21.88;;;10.80;99.90;;;;;;5045539;28;20040;-76
2022/05/03 03:06:41;;;;;;;29.25;21.70;;;10.80;99.90;;;;;;5041063;28;20517;-75
2022/05/03 03:09:08;;;;;;;31.17;23.20;;;10.80;99.90;;;;;;5077944;28;20051;-76
2022/05/03 03:11:55;;;;;;;29.05;22.33;;;10.80;99.90;;;;;;5045654;28;20191;-75
2022/05/03 03:14:32;;;;;;;31.42;22.52;;;10.90;99.90;;;;;;5045058;28;20132;-75
2022/05/03 03:17:07;;;;;;;29.88;22.95;;;10.80;99.90;;;;;;5044394;28;20076;-76
2022/05/03 03:19:51;;;;;;;29.80;21.40;;;10.90;99.90;;;;;;5024991;28;20060;-76
2022/05/03 03:22:20;;;;;;;29.90;21.77;;;10.90;99.90;;;;;;5046840;28;20059;-75
2022/05/03 03:24:48;;;;;;;28.83;21.13;;;10.90;99.90;;;;;;5041576;28;20080;-75
2022/05/03 03:27:14;;;;;;;28.05;20.55;;;10.90;99.90;;;;;;5046643;28;20044;-76
2022/05/03 03:29:41;;;;;;;27.95;20.17;;;10.90;99.90;;;;;;5073630;28;20390;-76
2022/05/03 03:32:08;;;;;;;27.80;20.75;;;10.90;99.90;;;;;;5042995;28;20056;-76
2022/05/03 03:34:39;;;;;;;28.13;19.75;;;10.90;99.90;;;;;;5060121;28;20059;-76
2022/05/03 03:37:07;;;;;;;24.52;18.98;;;10.90;99.90;;;;;;5043864;28;20052;-75
2022/05/03 03:39:34;;;;;;;27.33;21.13;;;10.90;99.90;;;;;;5027310;28;20037;-75
2022/05/03 03:42:07;;;;;;;29.15;21.13;;;10.90;99.90;;;;;;5028133;28;20049;-75
2022/05/03 03:44:33;;;;;;;28.02;20.25;;;10.90;99.90;;;;;;5044587;28;20504;-75
2022/05/03 03:47:01;;;;;;;27.00;20.77;;;11.00;99.90;;;;;;5058921;28;20159;-75
2022/05/03 03:49:29;;;;;;;29.77;22.38;;;11.00;99.90;;;;;;5077831;28;20059;-76
2022/05/03 03:51:55;;;;;;;24.80;19.40;;;11.00;99.90;;;;;;5044211;28;20055;-75
2022/05/03 03:54:23;;;;;;;25.88;20.10;;;11.00;99.90;;;;;;5043580;28;20558;-75
2022/05/03 03:56:50;;;;;;;27.33;21.55;;;11.00;99.90;;;;;;5057514;28;20091;-75
2022/05/03 03:59:17;;;;;;;27.17;22.00;;;11.00;99.90;;;;;;5043686;28;20554;-75
2022/05/03 04:01:43;;;;;;;26.23;19.92;;;11.00;99.90;;;;;;5045144;28;20048;-76
2022/05/03 04:04:11;;;;;;;25.13;18.70;;;11.00;99.90;;;;;;5026862;28;20053;-75
2022/05/03 04:06:37;;;;;;;24.85;18.73;;;11.10;99.90;;;;;;5077803;28;20410;-75
2022/05/03 04:09:03;;;;;;;24.52;18.75;;;11.10;99.90;;;;;;5025771;28;20063;-75
2022/05/03 04:11:28;;;;;;;23.40;17.67;;;11.10;99.90;;;;;;5029256;28;20041;-75
2022/05/03 04:13:54;;;;;;;22.73;17.40;;;11.10;99.90;;;;;;5012576;28;20049;-76
2022/05/03 04:16:20;;;;;;;23.77;18.23;;;11.10;99.90;;;;;;5044466;28;20041;-75
2022/05/03 04:18:46;;;;;;;22.15;17.33;;;11.20;99.90;;;;;;5043167;28;20099;-76
2022/05/03 04:21:16;;;;;;;21.80;17.25;;;11.20;99.90;;;;;;5072065;28;20156;-75
2022/05/03 04:23:43;;;;;;;22.20;17.20;;;11.10;99.90;;;;;;5076710;28;20210;-75
2022/05/03 04:26:09;;;;;;;22.30;16.92;;;11.20;99.90;;;;;;5042939;28;20060;-76
2022/05/03 04:28:36;;;;;;;20.55;16.55;;;11.20;99.90;;;;;;5076050;28;20049;-75
2022/05/03 04:31:01;;;;;;;21.77;17.38;;;11.10;99.90;;;;;;5075282;28;20052;-77
2022/05/03 04:33:27;;;;;;;22.50;16.90;;;11.20;99.90;;;;;;5061802;28;20703;-74
2022/05/03 04:35:53;;;;;;;21.42;16.23;;;11.20;99.90;;;;;;5060663;28;20052;-76
2022/05/03 04:38:18;;;;;;;22.80;17.35;;;11.20;99.90;;;;;;5059553;28;20049;-75
2022/05/03 04:40:44;;;;;;;21.42;16.65;;;11.20;99.90;;;;;;5043578;28;20394;-74
2022/05/03 04:43:10;;;;;;;22.58;16.83;;;11.20;99.90;;;;;;5027360;28;20080;-74
2022/05/03 04:45:36;;;;;;;22.33;16.48;;;11.20;99.90;;;;;;5057739;28;20084;-76
2022/05/03 04:48:02;;;;;;;22.77;17.00;;;11.20;99.90;;;;;;5044353;28;20077;-74
2022/05/03 04:50:28;;;;;;;22.40;17.15;;;11.20;99.90;;;;;;5026253;28;20045;-76
2022/05/03 04:52:53;;;;;;;26.77;18.23;;;11.20;99.90;;;;;;5044942;28;20139;-78
2022/05/03 04:55:19;;;;;;;22.33;17.13;;;11.20;99.90;;;;;;5058981;28;20086;-75
2022/05/03 04:57:45;;;;;;;24.58;16.00;;;11.20;99.90;;;;;;5075174;28;20045;-74
2022/05/03 05:00:11;;;;;;;19.83;14.35;;;11.20;99.90;;;;;;5040663;28;20048;-75
2022/05/03 05:02:37;;;;;;;19.55;14.15;;;11.20;99.90;;;;;;5040807;28;20088;-75
2022/05/03 05:05:03;;;;;;;19.27;14.15;;;11.20;99.90;;;;;;5026402;28;20060;-75
2022/05/03 05:07:29;;;;;;;22.55;13.20;;;11.20;99.90;;;;;;5037907;28;20162;-75
2022/05/03 05:12:39;;;;;;;17.88;12.90;;;11.20;99.90;;;;;;5039971;28;20164;-76
2022/05/03 05:15:05;;;;;;;16.17;11.25;;;11.20;99.90;;;;;;5058364;28;20203;-76
2022/05/03 05:17:33;;;;;;;15.35;10.60;;;11.20;99.90;;;;;;5051939;28;20138;-75
2022/05/03 05:19:59;;;;;;;9.85;7.90;;;11.20;99.90;;;;;;5045915;28;20136;-75
2022/05/03 05:22:25;;;;;;;10.43;7.38;;;11.20;99.90;;;;;;5044043;28;20198;-75
2022/05/03 05:24:51;;;;;;;8.82;7.22;;;11.00;99.90;;;;;;5027946;28;20102;-75
2022/05/03 05:27:17;;;;;;;8.52;6.75;;;11.40;99.90;;;;;;5045501;28;20604;-76
2022/05/03 05:29:43;;;;;;;8.73;6.97;;;11.20;99.90;;;;;;5045665;28;20110;-76
2022/05/03 05:32:09;;;;;;;8.82;6.47;;;11.10;99.90;;;;;;5010937;28;20050;-75
2022/05/03 05:34:35;;;;;;;8.40;6.63;;;11.10;99.90;;;;;;5059415;28;20048;-75
2022/05/03 05:37:01;;;;;;;7.38;6.25;;;11.10;99.90;;;;;;5024540;28;20049;-76
2022/05/03 05:39:26;;;;;;;7.78;6.10;;;11.10;99.90;;;;;;5076157;28;20044;-76
2022/05/03 05:41:56;;;;;;;7.65;5.10;;;11.10;99.90;;;;;;5040952;28;20105;-77
2022/05/03 05:44:22;;;;;;;7.45;5.18;;;11.10;99.90;;;;;;5058713;28;20037;-75
2022/05/03 05:46:49;;;;;;;5.90;4.95;;;11.10;99.90;;;;;;5042891;28;20639;-76
2022/05/03 05:49:14;;;;;;;6.20;4.45;;;11.10;99.90;;;;;;5022798;28;20107;-76
2022/05/03 05:51:40;;;;;;;6.38;4.10;;;11.10;99.90;;;;;;5041700;28;20116;-76
2022/05/03 05:54:06;;;;;;;5.10;3.97;;;11.00;99.90;;;;;;5026686;28;20143;-76
2022/05/03 05:56:31;;;;;;;5.75;3.90;;;11.00;99.90;;;;;;5059244;28;20049;-75
2022/05/03 05:58:57;;;;;;;9.18;4.00;;;11.00;99.90;;;;;;5041178;28;20482;-76
2022/05/03 06:01:35;;;;;;;4.85;3.72;;;10.90;99.90;;;;;;5043145;28;20049;-76
2022/05/03 06:04:00;;;;;;;7.65;3.67;;;10.90;99.90;;;;;;5073256;28;20047;-76
2022/05/03 06:06:26;;;;;;;6.00;3.63;;;10.90;99.90;;;;;;5042656;28;20460;-74
2022/05/03 06:08:52;;;;;;;5.25;3.85;;;10.80;99.90;;;;;;5040282;28;20134;-74
2022/05/03 06:11:17;;;;;;;6.43;3.55;;;10.80;99.90;;;;;;5009429;28;20437;-75
2022/05/03 06:13:43;;;;;;;5.75;3.88;;;10.50;99.90;;;;;;5044620;28;20076;-76
2022/05/03 06:16:10;;;;;;;6.93;4.05;;;10.80;99.90;;;;;;5042665;28;20494;-75
2022/05/03 06:18:36;;;;;;;6.47;4.30;;;10.70;99.90;;;;;;5023572;28;20618;-74
2022/05/03 06:21:05;;;;;;;9.48;3.97;;;10.70;99.90;;;;;;5075894;28;20045;-77
2022/05/03 06:23:31;;;;;;;9.98;3.92;;;10.70;99.90;;;;;;5058838;28;20045;-75
2022/05/03 06:25:58;;;;;;;8.45;4.30;;;10.70;99.90;;;;;;5045236;28;20076;-76
2022/05/03 06:28:24;;;;;;;17.52;4.57;;;10.70;99.90;;;;;;5073016;28;20885;-74
2022/05/03 06:30:50;;;;;;;13.77;3.90;;;10.60;99.90;;;;;;5056425;28;20048;-74
2022/05/03 06:33:16;;;;;;;9.82;3.90;;;10.70;99.90;;;;;;5057527;28;20041;-75
2022/05/03 06:35:41;;;;;;;9.43;3.75;;;10.60;99.90;;;;;;5057412;28;20127;-75
2022/05/03 06:38:07;;;;;;;10.98;4.03;;;10.60;99.90;;;;;;5047926;28;20216;-77
2022/05/03 06:40:33;;;;;;;7.57;3.60;;;10.60;99.90;;;;;;5027642;28;20107;-74
2022/05/03 06:42:58;;;;;;;8.85;3.58;;;10.60;99.90;;;;;;5045581;28;20041;-75
2022/05/03 06:45:24;;;;;;;9.65;3.85;;;10.60;99.90;;;;;;5044740;28;20049;-76
2022/05/03 06:47:50;;;;;;;7.80;3.90;;;10.60;99.90;;;;;;5028549;28;20132;-76
2022/05/03 06:50:16;;;;;;;10.85;3.85;;;10.60;99.90;;;;;;5045332;28;20052;-75
2022/05/03 06:52:43;;;;;;;10.85;3.50;;;10.60;99.90;;;;;;5044650;28;20060;-75
2022/05/03 06:55:10;;;;;;;13.65;4.05;;;10.60;99.90;;;;;;5044860;28;20219;-71
2022/05/03 06:57:36;;;;;;;13.02;4.00;;;10.60;99.90;;;;;;5045391;28;20053;-75
2022/05/03 07:00:05;;;;;;;9.20;3.80;;;10.60;99.90;;;;;;5029217;28;20040;-74
2022/05/03 07:02:32;;;;;;;13.23;3.88;;;10.60;99.90;;;;;;5047565;28;20049;-74
2022/05/03 07:05:02;;;;;;;11.95;3.70;;;10.70;99.90;;;;;;5045151;28;20074;-74
2022/05/03 07:07:28;;;;;;;9.50;4.13;;;10.70;99.90;;;;;;5077828;28;20370;-75
2022/05/03 07:09:59;;;;;;;18.65;4.30;;;10.70;99.90;;;;;;5044018;28;20056;-75
2022/05/03 07:12:26;;;;;;;11.65;3.60;;;10.80;99.90;;;;;;5046183;28;20478;-75
2022/05/03 07:14:51;;;;;;;12.23;3.63;;;10.90;99.90;;;;;;5027841;28;20541;-74
2022/05/03 07:22:47;;;;;;;13.40;3.88;;;11.00;99.90;;;;;;5046609;28;20411;-74
2022/05/03 07:25:17;;;;;;;9.23;3.08;;;11.10;99.90;;;;;;5044176;28;20055;-75
2022/05/03 07:27:46;;;;;;;10.82;3.13;;;11.20;99.90;;;;;;5075094;28;20119;-75
2022/05/03 07:30:16;;;;;;;7.72;2.95;;;11.20;99.90;;;;;;5040458;28;20057;-75
2022/05/03 07:32:43;;;;;;;8.05;3.00;;;11.30;99.90;;;;;;5026107;28;20825;-75
2022/05/03 07:35:09;;;;;;;8.35;3.00;;;11.40;99.90;;;;;;5043037;28;20061;-76
2022/05/03 07:37:36;;;;;;;9.60;3.00;;;11.40;99.90;;;;;;5061800;28;20045;-76
2022/05/03 07:40:04;;;;;;;9.40;2.83;;;11.50;99.90;;;;;;5026330;28;20048;-73
2022/05/03 07:42:29;;;;;;;8.65;2.90;;;11.60;99.90;;;;;;5038112;28;20541;-75
2022/05/03 07:44:55;;;;;;;8.82;3.13;;;11.70;99.90;;;;;;5061994;28;20051;-77
2022/05/03 07:47:21;;;;;;;10.65;2.90;;;11.80;99.90;;;;;;5063524;28;20128;-73
2022/05/03 07:49:46;;;;;;;8.85;2.75;;;11.80;99.90;;;;;;5046227;28;20045;-76
2022/05/03 07:52:12;;;;;;;10.23;2.95;;;11.90;99.90;;;;;;5029215;28;20061;-74
2022/05/03 07:54:42;;;;;;;9.75;2.80;;;12.00;99.90;;;;;;5047015;28;20056;-73
2022/05/03 07:57:08;;;;;;;7.22;2.85;;;12.10;99.90;;;;;;5046251;28;20087;-75
2022/05/03 07:59:34;;;;;;;7.40;2.78;;;12.40;99.90;;;;;;5014061;28;20135;-76
2022/05/03 08:02:00;;;;;;;11.85;2.85;;;12.30;99.90;;;;;;5044916;28;20234;-73
2022/05/03 08:04:26;;;;;;;9.52;2.75;;;12.50;99.90;;;;;;5045482;28;20520;-77
2022/05/03 08:06:52;;;;;;;11.05;2.72;;;12.50;99.90;;;;;;5045508;28;20131;-75
2022/05/03 08:09:18;;;;;;;6.43;2.80;;;12.60;99.90;;;;;;5061272;28;20064;-76
2022/05/03 08:11:44;;;;;;;9.45;2.70;;;12.70;99.90;;;;;;5046000;28;20048;-72
2022/05/03 08:14:10;;;;;;;9.50;3.10;;;12.80;99.90;;;;;;5063295;28;20076;-76
2022/05/03 08:16:35;;;;;;;8.02;3.28;;;12.90;99.90;;;;;;5045492;28;20049;-74
2022/05/03 08:19:02;;;;;;;11.50;3.08;;;13.00;99.90;;;;;;5028539;28;20148;-75
2022/05/03 08:21:28;;;;;;;9.40;3.28;;;13.10;99.90;;;;;;5029647;28;20052;-76
2022/05/03 08:23:54;;;;;;;8.80;2.55;;;13.10;99.90;;;;;;5047031;28;20041;-78
2022/05/03 08:26:20;;;;;;;12.30;3.28;;;13.20;99.90;;;;;;5045982;28;20051;-75
2022/05/03 08:28:46;;;;;;;10.55;2.80;;;13.30;99.90;;;;;;5077815;28;20057;-73
2022/05/03 08:31:12;;;;;;;9.38;3.17;;;13.40;99.90;;;;;;5027980;28;20041;-77
2022/05/03 08:33:38;;;;;;;8.20;2.78;;;13.50;99.90;;;;;;5027897;28;20049;-76
2022/05/03 08:36:04;;;;;;;7.68;2.50;;;13.50;99.90;;;;;;5045890;28;20427;-74
2022/05/03 08:44:00;;;;;;;4.78;2.03;;;13.50;99.90;;;;;;5077028;28;20049;-77
2022/05/03 08:46:29;;;;;;;8.10;2.50;;;13.50;99.90;;;;;;5078590;28;20136;-77
2022/05/03 08:49:03;;;;;;;8.38;2.63;;;13.50;99.90;;;;;;5079565;28;20486;-75
2022/05/03 08:51:31;;;;;;;12.93;2.80;;;13.60;99.90;;;;;;5040517;28;20111;-76
2022/05/03 08:53:59;;;;;;;9.85;3.33;;;13.60;99.90;;;;;;5023021;28;20584;-77
2022/05/03 08:56:25;;;;;;;7.55;2.15;;;13.60;99.90;;;;;;5079157;28;20041;-79
2022/05/03 08:58:51;;;;;;;11.13;2.40;;;13.60;99.90;;;;;;5061666;28;20525;-74
2022/05/03 09:01:18;;;;;;;8.25;2.65;;;13.70;99.90;;;;;;5079614;28;20048;-77
2022/05/03 09:03:44;;;;;;;7.03;2.10;;;13.70;99.90;;;;;;5045242;28;20052;-76
2022/05/03 09:06:10;;;;;;;8.15;2.40;;;13.80;99.90;;;;;;5063036;28;20136;-71
2022/05/03 09:08:37;;;;;;;4.50;2.13;;;13.90;99.90;;;;;;5043841;28;20123;-77
2022/05/03 09:11:16;;;;;;;8.77;2.55;;;13.90;99.90;;;;;;5045876;28;20049;-76
2022/05/03 09:13:43;;;;;;;7.35;2.50;;;14.00;99.90;;;;;;5061620;28;20047;-76
2022/05/03 09:16:15;;;;;;;7.15;2.47;;;14.10;99.90;;;;;;5059272;28;20394;-76
2022/05/03 09:18:43;;;;;;;10.75;2.60;;;14.10;99.90;;;;;;5044679;28;20067;-76
2022/05/03 09:24:10;;;;;;;12.10;2.80;;;14.30;99.90;;;;;;5043886;28;20053;-76
2022/05/03 09:26:37;;;;;;;11.30;3.03;;;14.30;99.90;;;;;;5046408;28;20060;-76
2022/05/03 09:29:08;;;;;;;5.95;2.13;;;14.30;99.90;;;;;;5043418;28;20049;-77
2022/05/03 09:31:38;;;;;;;6.38;2.25;;;14.20;99.90;;;;;;5024940;28;20047;-76
2022/05/03 09:34:19;;;;;;;6.70;2.30;;;14.40;99.90;;;;;;5044127;28;20091;-76
2022/05/03 09:36:45;;;;;;;8.52;2.25;;;14.40;99.90;;;;;;5045405;28;20041;-76
2022/05/03 09:39:24;;;;;;;6.57;2.00;;;14.40;99.90;;;;;;5045135;28;20055;-76
2022/05/03 09:42:10;;;;;;;7.25;2.20;;;14.40;99.90;;;;;;5046489;28;20124;-76
2022/05/03 09:44:51;;;;;;;;;;;14.40;99.90;;;;;;5046280;28;20056;-76
2022/05/03 09:47:18;;;;;;;8.20;1.95;;;14.40;99.90;;;;;;5047307;28;20394;-76
2022/05/03 09:49:44;;;;;;;6.35;1.90;;;15.00;99.90;;;;;;5024665;28;20126;-76
2022/05/03 09:52:32;;;;;;;4.25;1.50;;;14.50;99.90;;;;;;5047117;28;20053;-71
2022/05/03 09:55:00;;;;;;;4.50;1.83;;;14.60;99.90;;;;;;5049194;28;20060;-76
2022/05/03 09:57:27;;;;;;;7.50;2.45;;;14.60;99.90;;;;;;5050149;28;20056;-74
2022/05/03 09:59:57;;;;;;;6.13;2.05;;;14.70;99.90;;;;;;5079952;28;20041;-76
2022/05/03 10:02:25;;;;;;;6.32;2.33;;;14.80;99.90;;;;;;5043500;28;20076;-77
2022/05/03 10:04:52;;;;;;;4.90;1.50;;;14.90;99.90;;;;;;5043945;28;20052;-74
2022/05/03 10:07:20;;;;;;;6.22;1.85;;;15.00;99.90;;;;;;5066533;28;20053;-76
2022/05/03 10:09:46;;;;;;;5.63;1.60;;;15.10;99.90;;;;;;5043542;28;20494;-75
2022/05/03 10:12:14;;;;;;;4.75;1.73;;;15.20;99.90;;;;;;5044974;28;20080;-76
2022/05/03 10:14:41;;;;;;;5.43;1.83;;;15.20;99.90;;;;;;5022825;28;20052;-76
2022/05/03 10:20:42;;;;;;;5.38;1.70;;;15.40;99.90;;;;;;5043595;28;20132;-76
2022/05/03 10:23:23;;;;;;;5.75;1.70;;;15.70;99.90;;;;;;5026005;28;20110;-76
2022/05/03 10:25:59;;;;;;;5.63;1.73;;;15.90;99.90;;;;;;5025928;28;20053;-78
2022/05/03 10:28:26;;;;;;;5.57;1.80;;;15.90;99.90;;;;;;5026816;28;20053;-77
2022/05/03 10:31:13;;;;;;;4.65;1.60;;;16.00;99.90;;;;;;5076895;28;20045;-77
2022/05/03 10:33:40;;;;;;;6.18;1.65;;;16.00;99.90;;;;;;5046953;28;20049;-75
2022/05/03 10:36:34;;;;;;;6.78;1.63;;;16.10;99.90;;;;;;5045929;28;20464;-73
2022/05/03 10:39:18;;;;;;;5.93;1.60;;;16.20;99.90;;;;;;5030057;28;20414;-77
2022/05/03 10:41:53;;;;;;;5.47;1.67;;;16.40;99.90;;;;;;5046094;28;20096;-78
2022/05/03 10:44:39;;;;;;;5.88;1.70;;;16.50;99.90;;;;;;5048969;28;20560;-77
2022/05/03 10:47:05;;;;;;;7.38;1.52;;;16.50;99.90;;;;;;5047133;28;20064;-76
2022/05/03 10:49:31;;;;;;;3.97;1.60;;;16.40;99.90;;;;;;5025357;28;20033;-76
2022/05/03 10:51:56;;;;;;;4.68;1.23;;;16.40;99.90;;;;;;5024844;28;20053;-76
2022/05/03 10:54:22;;;;;;;5.18;1.50;;;16.50;99.90;;;;;;5060347;28;20141;-78
2022/05/03 10:57:03;;;;;;;4.45;1.50;;;16.40;99.90;;;;;;5043243;28;20053;-77
2022/05/03 10:59:46;;;;;;;4.15;1.45;;;16.50;99.90;;;;;;5021723;28;20056;-76
2022/05/03 11:02:12;;;;;;;5.45;1.67;;;16.70;99.90;;;;;;5046944;28;20092;-76
2022/05/03 11:05:16;;;;;;;4.22;1.63;;;16.70;99.90;;;;;;5044634;28;20507;-76
2022/05/03 11:08:16;;;;;;;5.53;1.70;;;16.70;98.90;;;;;;5028861;28;20060;-77
2022/05/03 11:10:43;;;;;;;6.72;1.60;;;16.70;99.00;;;;;;5064401;28;20049;-76
2022/05/03 11:13:35;;;;;;;6.35;1.52;;;16.70;99.80;;;;;;5045295;28;20053;-76
2022/05/03 11:16:21;;;;;;;5.60;1.58;;;16.70;99.00;;;;;;5028108;28;20041;-77
2022/05/03 11:18:47;;;;;;;5.60;2.00;;;16.60;98.80;;;;;;5079142;28;20052;-77
2022/05/03 11:21:16;;;;;;;4.72;1.27;;;16.50;99.70;;;;;;5046640;28;20049;-76
2022/05/03 11:23:55;;;;;;;5.03;1.42;;;16.50;99.80;;;;;;5061112;28;20099;-75
2022/05/03 11:26:25;;;;;;;3.50;1.48;;;16.40;99.10;;;;;;5040208;28;20084;-76
2022/05/03 11:28:52;;;;;;;3.90;1.25;;;16.00;99.20;;;;;;5060743;28;20044;-76
2022/05/03 11:31:21;;;;;;;5.63;1.83;;;16.60;99.10;;;;;;5025458;28;21010;-77
2022/05/03 11:33:50;;;;;;;5.38;1.50;;;16.70;98.60;;;;;;5075891;28;20106;-76
2022/05/03 11:36:16;;;;;;;5.72;1.63;;;16.90;98.50;;;;;;5028880;28;20417;-75
2022/05/03 11:38:41;;;;;;;4.90;1.35;;;17.10;98.40;;;;;;5059335;28;20048;-77
2022/05/03 11:41:07;;;;;;;5.53;1.55;;;17.00;97.90;;;;;;5025647;28;20049;-78
2022/05/03 11:43:33;;;;;;;5.13;1.52;;;17.00;98.00;;;;;;5078496;28;20041;-77
2022/05/03 11:46:00;;;;;;;4.05;1.40;;;17.20;97.80;;;;;;5045648;28;20049;-77
2022/05/03 11:48:27;;;;;;;5.88;1.35;;;17.40;97.60;;;;;;5028074;28;20045;-77
2022/05/03 11:56:26;;;;;;;3.90;1.60;;;17.90;96.30;;;;;;5059451;28;20057;-77
2022/05/03 11:58:54;;;;;;;5.05;1.30;;;18.10;95.60;;;;;;5025262;28;20535;-77
2022/05/03 12:01:21;;;;;;;4.25;1.70;;;18.10;95.30;;;;;;5045819;28;20057;-81
2022/05/03 12:03:53;;;;;;;5.05;1.40;;;18.30;95.50;;;;;;5043997;28;20213;-77
2022/05/03 12:06:21;;;;;;;4.47;1.70;;;18.40;95.10;;;;;;5076532;28;20160;-77
2022/05/03 12:08:48;;;;;;;5.53;1.38;;;18.40;94.90;;;;;;5042224;28;20044;-77
2022/05/03 12:11:22;;;;;;;4.35;1.38;;;18.50;94.80;;;;;;5062147;28;20049;-76
2022/05/03 12:13:48;;;;;;;5.07;1.40;;;18.50;93.90;;;;;;5058028;28;20053;-77
2022/05/03 12:16:17;;;;;;;3.60;1.25;;;18.60;94.40;;;;;;5060996;28;20068;-77
2022/05/03 12:18:48;;;;;;;4.97;1.63;;;18.80;94.10;;;;;;5040260;28;20059;-76
2022/05/03 12:21:17;;;;;;;4.38;1.15;;;18.80;93.50;;;;;;5075686;28;20053;-76
2022/05/03 12:23:50;;;;;;;4.97;1.30;;;18.60;93.00;;;;;;5039718;28;20147;-77
2022/05/03 12:26:16;;;;;;;5.35;1.38;;;18.70;91.80;;;;;;5025583;28;20052;-77
2022/05/03 12:28:51;;;;;;;5.18;1.80;;;19.00;92.70;;;;;;5022761;28;20048;-74
2022/05/03 12:31:18;;;;;;;5.37;1.40;;;19.30;92.20;;;;;;5076723;28;20410;-77
2022/05/03 12:33:49;;;;;;;4.85;1.30;;;19.60;91.90;;;;;;5025309;28;20080;-77
2022/05/03 12:36:33;;;;;;;4.18;1.25;;;19.70;90.50;;;;;;5042284;28;20545;-77
2022/05/03 12:39:15;;;;;;;5.40;1.35;;;20.00;90.10;;;;;;5040231;28;20418;-77
2022/05/03 12:41:42;;;;;;;3.58;1.20;;;20.30;88.10;;;;;;5057634;28;21125;-77
2022/05/03 12:44:10;;;;;;;3.85;1.30;;;20.50;88.00;;;;;;5076212;28;20402;-77
2022/05/03 12:46:37;;;;;;;3.05;1.20;;;20.70;85.20;;;;;;5040735;28;20052;-77
2022/05/03 12:49:11;;;;;;;4.53;1.27;;;20.70;84.50;;;;;;5040768;28;20056;-78
2022/05/03 12:51:48;;;;;;;6.63;1.23;;;20.90;82.00;;;;;;5022586;28;20044;-77
2022/05/03 12:54:14;;;;;;;4.22;1.30;;;21.00;79.70;;;;;;5035826;28;20106;-77
2022/05/03 12:59:27;;;;;;;4.80;1.33;;;21.30;77.70;;;;;;5076363;28;20076;-76
2022/05/03 13:01:57;;;;;;;3.88;1.42;;;21.20;76.80;;;;;;5025694;28;20064;-77
2022/05/03 13:04:24;;;;;;;6.65;1.42;;;21.30;77.00;;;;;;5028664;28;20057;-76
2022/05/03 13:06:52;;;;;;;2.78;1.02;;;21.30;75.00;;;;;;5056791;28;20433;-77
2022/05/03 13:09:18;;;;;;;5.20;1.65;;;21.50;75.50;;;;;;5042196;28;20041;-77
2022/05/03 13:11:44;;;;;;;4.20;1.45;;;21.80;74.70;;;;;;5043676;28;20106;-77
2022/05/03 13:14:11;;;;;;;6.18;1.65;;;22.00;73.60;;;;;;5044018;28;20595;-78
2022/05/03 13:16:37;;;;;;;3.80;1.20;;;22.00;73.00;;;;;;5031285;28;20037;-77
2022/05/03 13:19:04;;;;;;;3.25;1.40;;;21.80;71.50;;;;;;5030811;28;20130;-78
2022/05/03 13:21:35;;;;;;;3.58;1.35;;;21.60;70.90;;;;;;5077316;28;20060;-78
2022/05/03 13:24:05;;;;;;;4.47;1.50;;;21.10;71.30;;;;;;5027587;28;20049;-78
2022/05/03 13:26:33;;;;;;;5.75;1.40;;;20.70;71.00;;;;;;5006171;28;20052;-82
2022/05/03 13:29:04;;;;;;;4.50;1.25;;;20.50;72.10;;;;;;5044371;28;20044;-77
2022/05/03 13:31:30;;;;;;;4.65;1.48;;;20.50;72.50;;;;;;5038109;28;20049;-77
2022/05/03 13:33:56;;;;;;;5.72;1.55;;;20.30;73.30;;;;;;5079648;28;20053;-75